Greenough, Australia
Current Conditions -  °F | °C
As of 9:00 AM on Sunday 26 Oct 2014 (Local Time) from YGEL Reporting Station
Broken Clouds Broken Clouds  
Wind Chill: 72°   Ceiling: 3000
Heat Index: 72°   Visibility: 6mi
Dew Point: 52°   Wind: 10mph
Humidity: 50%   Direction: 170°S
Pressure: 30.18"   Gusts: NA
Location:  28.95°S, 114.76°E
Report Text: YGEL 260100Z 17009KT 9999 BKN030 22/11 Q1022
Loading
Personal Weather Stations






























Interactive Weather Map
Tropical Storm Tracking
New forecast layout! Learn more

10-Day Weather Forecast

Advertisements
Track Severe Weather on mobile